Almond, North Carolina
Current Conditions -  °F | °C
As of 3:35 AM on Tuesday 27 Jan 2015 (Local Time) from KRHP Reporting Station
Overcast Overcast  
Wind Chill: 31°   Ceiling: 2800
Heat Index: 31°   Visibility: 10mi
Dew Point: 28°   Wind: 0mph
Humidity: 88%   Direction: NA
Pressure: 29.84"   Gusts: NA
Location:  35.37°N, 83.57°W
Report Text: KRHP 270835Z AUTO 00000KT 10SM OVC028 M01/M02 A2984 RMK AO2 T10081025
Loading
Personal Weather Stations






























Interactive Weather Map New forecast layout! Learn more

10-Day Weather Forecast

Advertisements
Track Severe Weather on mobile